Time;durP1;ratioP1;P1;durP2;ratioP2;P2;SDS_P1;SDS_P2;PMS_P1;PMS_P2;Temp;Humidity;BMP_temperature;BMP_pressure;BME280_temperature;BME280_humidity;BME280_pressure;Samples;Min_cycle;Max_cycle;Signal;HPM_P1;HPM_P2
2023/01/22 00:01:07;;;;;;;9.70;5.10;;;1.80;99.90;;;;;;5033135;28;20591;-73
2023/01/22 00:03:34;;;;;;;12.33;5.00;;;1.90;99.90;;;;;;5033160;28;21062;-73
2023/01/22 00:06:01;;;;;;;9.40;4.17;;;1.90;99.90;;;;;;5033198;28;20915;-72
2023/01/22 00:08:30;;;;;;;14.03;4.63;;;2.00;99.90;;;;;;5033184;28;20479;-73
2023/01/22 00:10:57;;;;;;;22.30;10.73;;;1.80;99.90;;;;;;5033055;28;20484;-73
2023/01/22 00:13:25;;;;;;;7.67;4.70;;;1.80;99.90;;;;;;5032812;28;20887;-73
2023/01/22 00:15:52;;;;;;;12.70;6.53;;;2.00;99.90;;;;;;5032710;28;20595;-72
2023/01/22 00:18:19;;;;;;;12.50;7.73;;;2.00;99.90;;;;;;5033007;28;20559;-73
2023/01/22 00:20:47;;;;;;;13.43;4.67;;;1.90;99.90;;;;;;5032638;28;20494;-73
2023/01/22 00:23:14;;;;;;;8.67;6.73;;;1.80;99.90;;;;;;5032791;28;20945;-72
2023/01/22 00:25:43;;;;;;;11.00;6.20;;;1.80;99.90;;;;;;5032559;28;20459;-73
2023/01/22 00:28:10;;;;;;;8.90;5.30;;;1.90;99.90;;;;;;5032748;28;20504;-72
2023/01/22 00:30:37;;;;;;;10.97;7.07;;;1.80;99.90;;;;;;5032880;28;20504;-72
2023/01/22 00:33:05;;;;;;;11.20;5.23;;;1.90;99.90;;;;;;5032298;28;20428;-72
2023/01/22 00:35:34;;;;;;;7.40;5.67;;;1.80;99.90;;;;;;5032569;28;20453;-73
2023/01/22 00:38:02;;;;;;;4.73;3.23;;;1.70;99.90;;;;;;5032183;28;20887;-73
2023/01/22 00:40:29;;;;;;;3.83;2.53;;;1.60;99.90;;;;;;5032466;28;20427;-72
2023/01/22 00:42:57;;;;;;;8.50;3.53;;;1.60;99.90;;;;;;5032338;28;20953;-72
2023/01/22 00:45:24;;;;;;;14.93;5.80;;;1.60;99.90;;;;;;5032467;28;20419;-73
2023/01/22 00:47:51;;;;;;;17.57;7.13;;;1.60;99.90;;;;;;5032457;28;20469;-73
2023/01/22 00:50:18;;;;;;;14.57;6.80;;;1.70;99.90;;;;;;5032343;28;20431;-73
2023/01/22 00:52:45;;;;;;;11.00;6.37;;;1.70;99.90;;;;;;5032397;28;20412;-72
2023/01/22 00:55:12;;;;;;;6.13;4.10;;;1.80;99.90;;;;;;5032481;28;20539;-74
2023/01/22 00:57:39;;;;;;;8.13;5.27;;;1.80;99.90;;;;;;5032070;28;20530;-72
2023/01/22 01:00:09;;;;;;;4.17;3.73;;;1.80;99.90;;;;;;5032594;28;20436;-73
2023/01/22 01:03:25;;;;;;;4.73;4.27;;;1.90;99.90;;;;;;5032230;28;20477;-72
2023/01/22 01:05:24;;;;;;;4.10;3.70;;;2.00;99.90;;;;;;5031869;28;20953;-71
2023/01/22 01:07:50;;;;;;;5.77;3.03;;;1.80;99.90;;;;;;5034048;28;20464;-73
2023/01/22 01:10:18;;;;;;;12.77;5.93;;;1.80;99.90;;;;;;5032454;28;20882;-74
2023/01/22 01:12:45;;;;;;;12.83;6.23;;;1.70;99.90;;;;;;5031789;28;20464;-71
2023/01/22 01:15:13;;;;;;;5.17;3.63;;;1.70;99.90;;;;;;5031717;28;20457;-73
2023/01/22 01:17:40;;;;;;;13.20;6.33;;;1.70;99.90;;;;;;5031934;28;20526;-72
2023/01/22 01:20:07;;;;;;;5.80;3.63;;;1.60;99.90;;;;;;5031941;28;20448;-72
2023/01/22 01:22:35;;;;;;;10.60;7.53;;;1.60;99.90;;;;;;5031596;28;21012;-72
2023/01/22 01:25:02;;;;;;;6.77;5.17;;;1.60;99.90;;;;;;5031493;28;20451;-72
2023/01/22 01:27:30;;;;;;;3.60;3.30;;;1.50;99.90;;;;;;5031217;28;20469;-72
2023/01/22 01:29:57;;;;;;;3.47;3.20;;;1.60;99.90;;;;;;5031596;28;20523;-71
2023/01/22 01:32:26;;;;;;;13.57;5.90;;;1.60;99.90;;;;;;5031994;28;20445;-72
2023/01/22 01:34:53;;;;;;;15.10;7.13;;;1.60;99.90;;;;;;5031417;28;20456;-72
2023/01/22 01:37:20;;;;;;;6.97;3.93;;;1.60;99.90;;;;;;5031675;28;20487;-72
2023/01/22 01:39:51;;;;;;;4.80;3.67;;;1.80;99.90;;;;;;5032386;28;20424;-72
2023/01/22 01:42:24;;;;;;;5.80;3.50;;;1.70;99.90;;;;;;5035782;28;20475;-72
2023/01/22 01:45:22;;;;;;;7.60;5.07;;;1.80;99.90;;;;;;5035635;28;20465;-72
2023/01/22 01:47:54;;;;;;;9.13;4.73;;;1.80;99.90;;;;;;5035709;28;20543;-72
2023/01/22 01:50:24;;;;;;;13.47;8.90;;;1.70;99.90;;;;;;5035802;28;20441;-72
2023/01/22 01:52:52;;;;;;;9.00;5.23;;;1.60;99.90;;;;;;5035594;28;20520;-72
2023/01/22 01:55:26;;;;;;;10.00;6.00;;;1.60;99.90;;;;;;5035379;28;20430;-72
2023/01/22 01:57:56;;;;;;;6.87;4.77;;;1.70;99.90;;;;;;5035035;28;20472;-72
2023/01/22 02:00:24;;;;;;;9.03;5.60;;;1.70;99.90;;;;;;5035587;28;20567;-72
2023/01/22 02:02:52;;;;;;;7.37;3.60;;;1.70;99.90;;;;;;5035471;28;20480;-72
2023/01/22 02:05:20;;;;;;;12.20;5.30;;;1.70;99.90;;;;;;5035266;28;21033;-72
2023/01/22 02:07:47;;;;;;;11.87;5.50;;;1.60;99.90;;;;;;5035391;28;20490;-73
2023/01/22 02:10:14;;;;;;;8.00;4.60;;;1.60;99.90;;;;;;5035023;28;20885;-72
2023/01/22 02:12:41;;;;;;;5.47;3.77;;;1.80;99.90;;;;;;5035399;28;20415;-72
2023/01/22 02:15:10;;;;;;;10.10;4.70;;;1.70;99.90;;;;;;5035483;28;20452;-72
2023/01/22 02:17:37;;;;;;;6.43;4.37;;;1.80;99.90;;;;;;5034916;28;20921;-72
2023/01/22 02:20:06;;;;;;;7.60;4.77;;;1.80;99.90;;;;;;5035422;28;20540;-72
2023/01/22 02:22:38;;;;;;;5.90;5.30;;;1.60;99.90;;;;;;5034915;28;20466;-72
2023/01/22 02:25:06;;;;;;;5.63;3.70;;;1.70;99.90;;;;;;5034919;28;20465;-72
2023/01/22 02:27:33;;;;;;;10.23;4.80;;;1.70;99.90;;;;;;5035031;28;20551;-72
2023/01/22 02:30:00;;;;;;;12.10;3.93;;;1.70;99.90;;;;;;5036224;28;20506;-72
2023/01/22 02:32:27;;;;;;;3.83;3.53;;;1.80;99.90;;;;;;5036329;28;21033;-72
2023/01/22 02:34:54;;;;;;;3.50;2.90;;;1.70;99.90;;;;;;5034928;28;20463;-73
2023/01/22 02:37:21;;;;;;;7.60;4.40;;;1.70;99.90;;;;;;5034876;28;20461;-72
2023/01/22 02:39:49;;;;;;;9.77;4.67;;;1.70;99.90;;;;;;5034783;28;20448;-72
2023/01/22 02:42:16;;;;;;;6.33;3.97;;;1.60;99.90;;;;;;5034307;28;20488;-72
2023/01/22 02:44:43;;;;;;;5.00;4.47;;;1.70;99.90;;;;;;5034616;28;20510;-72
2023/01/22 02:47:10;;;;;;;6.30;4.37;;;1.80;99.90;;;;;;5034338;28;20548;-72
2023/01/22 02:49:37;;;;;;;7.73;4.53;;;1.70;99.90;;;;;;5034397;28;20485;-72
2023/01/22 02:52:04;;;;;;;11.60;5.10;;;1.80;99.90;;;;;;5034653;28;20447;-72
2023/01/22 02:54:31;;;;;;;9.60;5.23;;;1.80;99.90;;;;;;5034799;28;20472;-72
2023/01/22 02:56:59;;;;;;;6.50;3.50;;;1.80;99.90;;;;;;5034515;28;20440;-72
2023/01/22 02:59:26;;;;;;;5.97;4.20;;;1.80;99.90;;;;;;5034884;28;20432;-72
2023/01/22 03:01:55;;;;;;;9.00;5.60;;;1.90;99.90;;;;;;5034542;28;20460;-72
2023/01/22 03:04:37;;;;;;;5.33;4.20;;;1.70;99.90;;;;;;5089154;27;20537;-71
2023/01/22 03:07:03;;;;;;;3.00;2.70;;;1.60;99.90;;;;;;5087971;28;20796;-71
2023/01/22 03:09:30;;;;;;;7.67;3.60;;;1.60;99.90;;;;;;5089442;28;20485;-71
2023/01/22 03:11:58;;;;;;;6.57;5.67;;;1.60;99.90;;;;;;5089290;28;20421;-70
2023/01/22 03:22:39;;;;;;;2.73;2.50;;;1.40;99.90;;;;;;5088979;28;20516;-71
2023/01/22 03:25:07;;;;;;;11.93;5.00;;;1.30;99.90;;;;;;5088713;28;20457;-71
2023/01/22 03:27:34;;;;;;;8.30;4.67;;;1.40;99.90;;;;;;5053712;28;20501;-71
2023/01/22 03:30:01;;;;;;;8.17;5.03;;;1.40;99.90;;;;;;5089070;28;20478;-71
2023/01/22 03:32:28;;;;;;;5.77;3.50;;;1.40;99.90;;;;;;5088846;28;20475;-70
2023/01/22 03:34:56;;;;;;;10.03;5.63;;;1.40;99.90;;;;;;5088548;28;20421;-71
2023/01/22 03:37:23;;;;;;;4.70;2.07;;;1.40;99.90;;;;;;5088386;28;20446;-71
2023/01/22 03:39:50;;;;;;;7.70;5.70;;;1.30;99.90;;;;;;5088919;28;20439;-70
2023/01/22 03:42:16;;;;;;;2.80;2.43;;;1.30;99.90;;;;;;5088602;28;20921;-71
2023/01/22 03:44:43;;;;;;;7.27;5.07;;;1.40;99.90;;;;;;5088429;28;20425;-71
2023/01/22 03:47:10;;;;;;;10.60;5.50;;;1.30;99.90;;;;;;5088358;28;20793;-71
2023/01/22 03:49:37;;;;;;;8.40;5.33;;;1.40;99.90;;;;;;5088718;28;20511;-71
2023/01/22 03:52:05;;;;;;;7.60;3.60;;;1.40;99.90;;;;;;5088645;28;20839;-70
2023/01/22 03:54:32;;;;;;;7.17;4.00;;;1.30;99.90;;;;;;5090612;28;20449;-71
2023/01/22 03:56:59;;;;;;;15.83;6.23;;;1.20;99.90;;;;;;5088509;28;20427;-71
2023/01/22 03:59:26;;;;;;;6.60;4.63;;;1.30;99.90;;;;;;5088073;28;20529;-71
2023/01/22 04:01:53;;;;;;;5.23;3.57;;;1.20;99.90;;;;;;5088084;28;20446;-71
2023/01/22 04:04:21;;;;;;;4.83;3.30;;;1.20;99.90;;;;;;5088316;28;20568;-70
2023/01/22 04:06:48;;;;;;;8.00;5.17;;;1.20;99.90;;;;;;5088952;28;20504;-71
2023/01/22 04:09:16;;;;;;;5.77;4.83;;;1.10;99.90;;;;;;5088657;28;20556;-71
2023/01/22 04:11:43;;;;;;;11.60;5.33;;;1.10;99.90;;;;;;5088711;28;20485;-71
2023/01/22 04:14:10;;;;;;;4.73;3.73;;;1.20;99.90;;;;;;5085628;28;20530;-71
2023/01/22 04:16:37;;;;;;;4.93;3.23;;;1.30;99.90;;;;;;5074946;28;20779;-71
2023/01/22 04:19:05;;;;;;;10.00;4.60;;;1.20;99.90;;;;;;5075061;28;20528;-72
2023/01/22 04:21:35;;;;;;;8.00;4.73;;;1.20;99.90;;;;;;5074865;28;20453;-72
2023/01/22 04:24:01;;;;;;;9.00;5.10;;;1.30;99.90;;;;;;5075357;28;20453;-71
2023/01/22 04:26:30;;;;;;;6.00;5.03;;;1.30;99.90;;;;;;5074887;28;20452;-71
2023/01/22 04:28:57;;;;;;;9.23;4.53;;;1.40;99.90;;;;;;5075006;28;20529;-71
2023/01/22 04:31:23;;;;;;;19.83;7.83;;;1.40;99.90;;;;;;5074535;28;20451;-71
2023/01/22 04:33:50;;;;;;;6.77;2.90;;;1.30;99.90;;;;;;5074846;28;20538;-71
2023/01/22 04:36:17;;;;;;;5.60;4.43;;;1.20;99.90;;;;;;5074494;28;20478;-72
2023/01/22 04:38:45;;;;;;;9.63;5.37;;;1.20;99.90;;;;;;5074626;28;20521;-71
2023/01/22 04:41:12;;;;;;;6.57;4.00;;;1.10;99.90;;;;;;5074434;28;20508;-71
2023/01/22 04:43:41;;;;;;;11.87;7.37;;;1.20;99.90;;;;;;5074666;28;20457;-71
2023/01/22 04:46:08;;;;;;;4.50;3.30;;;1.30;99.90;;;;;;5074253;28;20512;-71
2023/01/22 04:48:35;;;;;;;6.97;4.30;;;1.40;99.90;;;;;;5074610;28;20481;-71
2023/01/22 04:51:02;;;;;;;9.07;4.83;;;1.30;99.90;;;;;;5039166;28;20992;-71
2023/01/22 04:53:29;;;;;;;5.53;4.10;;;1.20;99.90;;;;;;5038939;28;20538;-71
2023/01/22 04:55:56;;;;;;;9.10;4.37;;;1.20;99.90;;;;;;5074868;28;20428;-71
2023/01/22 04:58:23;;;;;;;15.70;6.10;;;1.30;99.90;;;;;;5074656;28;20468;-71
2023/01/22 05:00:51;;;;;;;6.50;3.77;;;1.20;99.90;;;;;;5074527;28;20537;-71
2023/01/22 05:03:18;;;;;;;7.60;4.43;;;1.20;99.90;;;;;;5072457;28;21109;-71
2023/01/22 05:05:45;;;;;;;8.73;6.20;;;1.20;99.90;;;;;;5074190;28;20461;-71
2023/01/22 05:08:12;;;;;;;5.70;3.30;;;1.20;99.90;;;;;;5074305;28;20556;-71
2023/01/22 05:10:39;;;;;;;9.67;5.93;;;1.20;99.90;;;;;;5074387;28;20453;-72
2023/01/22 05:13:07;;;;;;;4.20;3.80;;;1.20;99.90;;;;;;5074562;28;20938;-71
2023/01/22 05:15:34;;;;;;;2.37;2.17;;;1.20;99.90;;;;;;5073945;28;20509;-71
2023/01/22 05:18:03;;;;;;;6.40;4.50;;;1.10;99.90;;;;;;5073759;28;20467;-71
2023/01/22 05:20:30;;;;;;;7.03;3.80;;;1.00;99.90;;;;;;5072871;28;20550;-71
2023/01/22 05:22:56;;;;;;;7.60;4.30;;;1.10;99.90;;;;;;5072857;28;20509;-71
2023/01/22 05:25:23;;;;;;;9.30;5.80;;;1.10;99.90;;;;;;5073288;28;20804;-72
2023/01/22 05:27:50;;;;;;;4.80;2.40;;;1.20;99.90;;;;;;5072370;28;21029;-72
2023/01/22 05:30:17;;;;;;;5.10;4.67;;;1.20;99.90;;;;;;5073124;28;20921;-71
2023/01/22 05:32:44;;;;;;;5.33;3.80;;;1.20;99.90;;;;;;5072980;28;20546;-71
2023/01/22 05:35:12;;;;;;;5.83;5.17;;;1.20;99.90;;;;;;5073112;28;20503;-71
2023/01/22 05:37:40;;;;;;;5.37;3.50;;;1.10;99.90;;;;;;5072790;28;20477;-71
2023/01/22 05:40:08;;;;;;;8.00;5.60;;;1.10;99.90;;;;;;5072962;28;20430;-71
2023/01/22 05:42:35;;;;;;;7.27;2.60;;;1.20;99.90;;;;;;5072682;28;20421;-71
2023/01/22 05:45:02;;;;;;;8.43;3.13;;;1.20;99.90;;;;;;5072902;28;20461;-71
2023/01/22 05:47:29;;;;;;;8.60;5.80;;;1.20;99.90;;;;;;5072776;28;20466;-71
2023/01/22 05:49:56;;;;;;;5.50;3.57;;;1.20;99.90;;;;;;5072475;28;20768;-71
2023/01/22 05:52:24;;;;;;;8.80;4.50;;;1.20;99.90;;;;;;5072352;28;20444;-70
2023/01/22 05:54:51;;;;;;;9.20;3.73;;;1.20;99.90;;;;;;5072252;28;20418;-71
2023/01/22 05:57:18;;;;;;;10.00;5.70;;;1.20;99.90;;;;;;5072549;28;20473;-71
2023/01/22 05:59:45;;;;;;;15.37;5.67;;;1.30;99.90;;;;;;5072678;28;20451;-71
2023/01/22 06:02:12;;;;;;;9.90;4.80;;;1.20;99.90;;;;;;5072375;28;20482;-72
2023/01/22 06:04:39;;;;;;;5.57;3.77;;;1.10;99.90;;;;;;5072196;28;20469;-71
2023/01/22 06:07:05;;;;;;;9.77;5.83;;;1.20;99.90;;;;;;5072384;28;20428;-71
2023/01/22 06:09:34;;;;;;;7.23;3.30;;;1.20;99.90;;;;;;5072347;28;20466;-71
2023/01/22 06:12:01;;;;;;;4.20;3.07;;;1.20;99.90;;;;;;5072347;28;20617;-71
2023/01/22 06:14:28;;;;;;;5.33;3.53;;;1.20;99.90;;;;;;5072312;28;20528;-71
2023/01/22 06:16:55;;;;;;;7.23;4.20;;;1.30;99.90;;;;;;5071927;28;20526;-71
2023/01/22 06:19:22;;;;;;;6.93;4.53;;;1.30;99.90;;;;;;5071891;28;21253;-72
2023/01/22 06:21:49;;;;;;;10.03;6.40;;;1.40;99.90;;;;;;5071850;28;20443;-72
2023/01/22 06:24:16;;;;;;;8.23;3.43;;;1.40;99.90;;;;;;5071842;28;20552;-72
2023/01/22 06:26:44;;;;;;;8.50;4.30;;;1.30;99.90;;;;;;5072234;28;20411;-72
2023/01/22 06:29:11;;;;;;;5.07;3.43;;;1.10;99.90;;;;;;5071768;28;21059;-72
2023/01/22 06:31:38;;;;;;;5.93;3.07;;;1.20;99.90;;;;;;5072470;28;20520;-72
2023/01/22 06:34:05;;;;;;;4.87;2.90;;;1.10;99.90;;;;;;5072245;28;20443;-72
2023/01/22 06:36:32;;;;;;;4.57;3.03;;;1.10;99.90;;;;;;5071898;28;20576;-72
2023/01/22 06:38:59;;;;;;;7.30;5.17;;;1.10;99.90;;;;;;5072311;28;20531;-72
2023/01/22 06:41:25;;;;;;;9.27;4.23;;;1.10;99.90;;;;;;5072243;28;20428;-72
2023/01/22 06:43:54;;;;;;;5.33;3.90;;;1.10;99.90;;;;;;5072176;28;20817;-70
2023/01/22 06:46:21;;;;;;;7.53;4.90;;;1.30;99.90;;;;;;5071961;28;20446;-71
2023/01/22 06:48:48;;;;;;;7.43;3.80;;;1.30;99.90;;;;;;5071651;28;20773;-71
2023/01/22 06:51:14;;;;;;;5.90;3.43;;;1.20;99.90;;;;;;5071676;28;20973;-71
2023/01/22 06:53:41;;;;;;;5.70;5.00;;;1.20;99.90;;;;;;5071955;28;20425;-71
2023/01/22 06:56:09;;;;;;;7.60;5.80;;;1.20;99.90;;;;;;5071806;28;20538;-71
2023/01/22 06:58:36;;;;;;;4.40;3.90;;;1.30;99.90;;;;;;5071440;28;20537;-71
2023/01/22 07:01:05;;;;;;;11.30;6.13;;;1.20;99.90;;;;;;5071923;28;20460;-71
2023/01/22 07:03:32;;;;;;;9.40;4.13;;;1.20;99.90;;;;;;5071403;28;20549;-71
2023/01/22 07:06:00;;;;;;;9.80;5.27;;;1.30;99.90;;;;;;5071639;28;20538;-71
2023/01/22 07:08:28;;;;;;;6.33;4.00;;;1.40;99.90;;;;;;5071735;28;20549;-71
2023/01/22 07:10:55;;;;;;;8.93;4.50;;;1.30;99.90;;;;;;5071441;28;20420;-71
2023/01/22 07:13:22;;;;;;;5.00;3.80;;;1.20;99.90;;;;;;5071249;28;20601;-71
2023/01/22 07:15:49;;;;;;;9.60;5.10;;;1.20;99.90;;;;;;5071514;28;20486;-71
2023/01/22 07:18:19;;;;;;;7.77;5.07;;;1.30;99.90;;;;;;5071229;28;20443;-71
2023/01/22 07:20:46;;;;;;;7.20;4.20;;;1.30;99.90;;;;;;5071762;28;20777;-71
2023/01/22 07:23:14;;;;;;;12.70;5.97;;;1.20;99.90;;;;;;5073044;28;20860;-71
2023/01/22 07:25:40;;;;;;;7.47;5.47;;;1.30;99.90;;;;;;5071521;28;20475;-71
2023/01/22 07:28:08;;;;;;;4.30;3.17;;;1.20;99.90;;;;;;5071485;28;20442;-70
2023/01/22 07:30:35;;;;;;;10.63;5.57;;;1.20;99.90;;;;;;5071524;28;20447;-71
2023/01/22 07:33:03;;;;;;;9.40;4.37;;;1.10;99.90;;;;;;5071456;28;20455;-71
2023/01/22 07:35:31;;;;;;;5.10;3.50;;;1.20;99.90;;;;;;5071457;28;20410;-71
2023/01/22 07:37:59;;;;;;;8.50;4.37;;;1.30;99.90;;;;;;5071125;28;20964;-70
2023/01/22 07:40:26;;;;;;;4.60;3.50;;;1.10;99.90;;;;;;5071414;28;20422;-70
2023/01/22 07:42:54;;;;;;;3.23;2.93;;;1.20;99.90;;;;;;5071461;28;20534;-71
2023/01/22 07:45:23;;;;;;;8.10;5.73;;;1.30;99.90;;;;;;5071447;28;20813;-71
2023/01/22 07:47:54;;;;;;;7.37;3.97;;;1.30;99.90;;;;;;5071003;28;20526;-71
2023/01/22 07:50:21;;;;;;;6.07;2.33;;;1.20;99.90;;;;;;5073226;28;20451;-71
2023/01/22 07:52:49;;;;;;;4.63;4.23;;;1.10;99.90;;;;;;5075368;28;20429;-71
2023/01/22 07:55:16;;;;;;;7.67;5.30;;;1.20;99.90;;;;;;5075337;28;20547;-71
2023/01/22 07:57:44;;;;;;;7.20;2.90;;;1.20;99.90;;;;;;5075353;28;20546;-71
2023/01/22 08:00:14;;;;;;;9.17;4.00;;;1.20;99.90;;;;;;5077155;28;20468;-71
2023/01/22 08:02:41;;;;;;;4.27;3.40;;;1.20;99.90;;;;;;5074955;28;20979;-71
2023/01/22 08:05:10;;;;;;;6.37;2.53;;;1.10;99.90;;;;;;5074897;28;20848;-71
2023/01/22 08:07:37;;;;;;;6.13;3.20;;;1.10;99.90;;;;;;5074637;28;20908;-71
2023/01/22 08:10:07;;;;;;;5.10;2.63;;;1.30;99.90;;;;;;5074678;28;20479;-71
2023/01/22 08:12:35;;;;;;;7.40;4.90;;;1.30;99.90;;;;;;5074706;28;20426;-71
2023/01/22 08:15:02;;;;;;;5.70;4.67;;;1.40;99.90;;;;;;5074839;28;20823;-72
2023/01/22 08:17:29;;;;;;;6.57;5.87;;;1.50;99.90;;;;;;5074294;28;20471;-71
2023/01/22 08:19:56;;;;;;;9.67;5.77;;;1.50;99.90;;;;;;5074505;28;20538;-73
2023/01/22 08:22:23;;;;;;;5.20;4.80;;;1.60;99.90;;;;;;5074710;28;20534;-71
2023/01/22 08:24:50;;;;;;;3.47;3.27;;;1.50;99.90;;;;;;5074339;28;20552;-71
2023/01/22 08:27:18;;;;;;;6.57;4.40;;;1.50;99.90;;;;;;5074694;28;20501;-71
2023/01/22 08:29:45;;;;;;;7.90;5.43;;;1.30;99.90;;;;;;5074816;28;20444;-71
2023/01/22 08:32:12;;;;;;;7.17;4.13;;;1.40;99.90;;;;;;5055850;28;20475;-71
2023/01/22 08:34:39;;;;;;;4.20;3.80;;;1.50;99.90;;;;;;5074673;28;20414;-72
2023/01/22 08:37:08;;;;;;;11.93;4.40;;;1.50;99.90;;;;;;5075092;28;20869;-72
2023/01/22 08:39:35;;;;;;;10.40;5.07;;;1.60;99.90;;;;;;5076197;28;20448;-72
2023/01/22 08:42:02;;;;;;;6.80;4.83;;;1.60;99.90;;;;;;5074880;28;20633;-72
2023/01/22 08:44:31;;;;;;;13.50;5.00;;;1.60;99.90;;;;;;5074431;28;21192;-72
2023/01/22 08:46:58;;;;;;;9.47;5.13;;;1.60;99.90;;;;;;5073993;28;20547;-72
2023/01/22 08:49:29;;;;;;;6.43;4.93;;;1.60;99.90;;;;;;5074140;28;20821;-72
2023/01/22 08:51:56;;;;;;;10.00;5.40;;;1.70;99.90;;;;;;5074263;28;20443;-71
2023/01/22 08:54:25;;;;;;;6.40;3.70;;;1.60;99.90;;;;;;5073740;28;20493;-71
2023/01/22 08:56:52;;;;;;;8.73;4.77;;;1.60;99.90;;;;;;5073258;28;20728;-71
2023/01/22 08:59:19;;;;;;;4.17;3.43;;;1.80;99.90;;;;;;5073829;28;20453;-71
2023/01/22 09:01:47;;;;;;;7.73;6.07;;;2.00;99.90;;;;;;5073971;28;20533;-72
2023/01/22 09:04:16;;;;;;;5.17;3.97;;;2.10;99.90;;;;;;5073664;28;20455;-71
2023/01/22 09:06:43;;;;;;;6.50;4.30;;;2.00;99.90;;;;;;5073725;28;20447;-71
2023/01/22 09:09:10;;;;;;;8.67;5.17;;;1.90;99.90;;;;;;5073353;28;20557;-71
2023/01/22 09:11:37;;;;;;;11.53;4.53;;;1.90;99.90;;;;;;5073201;28;20452;-71
2023/01/22 09:14:07;;;;;;;8.23;3.37;;;2.00;99.90;;;;;;5073019;28;20422;-71
2023/01/22 09:16:34;;;;;;;6.80;4.80;;;2.10;99.90;;;;;;5073767;28;20829;-71
2023/01/22 09:19:02;;;;;;;5.50;3.97;;;2.10;99.90;;;;;;5073433;28;20965;-71
2023/01/22 09:21:29;;;;;;;7.80;4.83;;;2.20;99.90;;;;;;5074946;28;20509;-70
2023/01/22 09:23:56;;;;;;;9.17;6.03;;;2.20;99.90;;;;;;5074022;28;20493;-70
2023/01/22 09:26:23;;;;;;;7.47;3.10;;;2.10;99.90;;;;;;5073256;28;20559;-70
2023/01/22 09:28:51;;;;;;;9.13;7.00;;;2.20;99.90;;;;;;5073363;28;20505;-70
2023/01/22 09:31:18;;;;;;;7.00;5.73;;;2.20;99.90;;;;;;5073169;28;20820;-70
2023/01/22 09:33:46;;;;;;;9.03;5.23;;;2.10;99.90;;;;;;5073263;28;20482;-70
2023/01/22 09:36:16;;;;;;;5.53;4.67;;;2.10;99.90;;;;;;5073228;28;20531;-70
2023/01/22 09:38:44;;;;;;;6.33;4.10;;;1.90;99.90;;;;;;5072974;28;20823;-70
2023/01/22 09:41:18;;;;;;;3.80;3.27;;;2.00;99.90;;;;;;5072688;28;20419;-70
2023/01/22 09:43:49;;;;;;;6.63;4.17;;;1.90;99.90;;;;;;5072676;28;20475;-70
2023/01/22 09:46:22;;;;;;;9.13;4.93;;;2.10;99.90;;;;;;5073188;28;20510;-71
2023/01/22 09:48:54;;;;;;;20.73;5.23;;;2.30;99.90;;;;;;5072534;28;20466;-72
2023/01/22 09:51:23;;;;;;;6.90;4.07;;;2.40;99.90;;;;;;5072905;28;20407;-71
2023/01/22 09:53:56;;;;;;;6.43;3.47;;;2.30;99.90;;;;;;5074790;28;20457;-71
2023/01/22 09:56:29;;;;;;;10.10;3.40;;;2.30;99.90;;;;;;5073390;28;20436;-71
2023/01/22 09:59:00;;;;;;;6.17;3.83;;;2.20;99.90;;;;;;5072963;28;20437;-71
2023/01/22 10:01:28;;;;;;;7.47;5.37;;;2.20;99.90;;;;;;5072599;28;21021;-69
2023/01/22 10:03:58;;;;;;;3.47;1.90;;;2.30;99.90;;;;;;5072175;28;20956;-70
2023/01/22 10:06:28;;;;;;;11.50;6.23;;;2.10;99.90;;;;;;5072437;28;20834;-70
2023/01/22 10:09:06;;;;;;;7.93;7.10;;;2.10;99.90;;;;;;5072586;28;20900;-70
2023/01/22 10:11:33;;;;;;;6.63;5.90;;;2.10;99.90;;;;;;5072204;28;20436;-71
2023/01/22 10:14:02;;;;;;;10.83;6.30;;;2.20;99.90;;;;;;5071870;28;20426;-71
2023/01/22 10:16:29;;;;;;;7.53;4.30;;;2.30;99.90;;;;;;5071809;28;20443;-71
2023/01/22 10:19:00;;;;;;;6.40;4.33;;;2.30;99.90;;;;;;5072109;28;20521;-72
2023/01/22 10:21:31;;;;;;;11.87;5.37;;;2.30;99.90;;;;;;5072532;28;20827;-73
2023/01/22 10:23:59;;;;;;;9.40;4.80;;;2.30;99.90;;;;;;5072245;28;20867;-71
2023/01/22 10:26:34;;;;;;;6.73;4.03;;;2.30;99.90;;;;;;5072303;28;20481;-71
2023/01/22 10:29:06;;;;;;;9.87;5.50;;;2.30;99.90;;;;;;5072046;28;20527;-71
2023/01/22 10:31:35;;;;;;;12.10;5.93;;;2.30;99.90;;;;;;5072837;28;20444;-71
2023/01/22 10:34:04;;;;;;;8.30;4.93;;;2.30;99.90;;;;;;5071949;28;20849;-71
2023/01/22 10:36:32;;;;;;;11.40;5.93;;;2.40;99.90;;;;;;5071977;28;20451;-71
2023/01/22 10:39:09;;;;;;;8.83;5.10;;;2.50;99.90;;;;;;5071543;28;20468;-72
2023/01/22 10:41:36;;;;;;;10.57;6.10;;;2.50;99.90;;;;;;5073614;28;20398;-72
2023/01/22 10:44:25;;;;;;;9.47;2.93;;;2.30;99.90;;;;;;5072277;28;20513;-72
2023/01/22 10:46:53;;;;;;;9.80;4.60;;;2.40;99.90;;;;;;5066978;28;20546;-72
2023/01/22 10:49:22;;;;;;;11.00;5.47;;;2.50;99.90;;;;;;5071536;28;20550;-72
2023/01/22 10:51:54;;;;;;;7.90;4.00;;;2.70;99.90;;;;;;5072053;28;20444;-72
2023/01/22 10:54:29;;;;;;;6.00;3.63;;;2.70;99.90;;;;;;5071983;28;20509;-72
2023/01/22 10:57:05;;;;;;;7.93;5.60;;;2.60;99.90;;;;;;5072205;28;20398;-72
2023/01/22 10:59:33;;;;;;;7.60;4.67;;;2.80;99.90;;;;;;5071550;28;20408;-72
2023/01/22 11:02:02;;;;;;;23.63;5.37;;;2.70;99.90;;;;;;5071406;28;20552;-72
2023/01/22 11:04:33;;;;;;;10.87;6.00;;;2.60;99.90;;;;;;5071053;28;20433;-72
2023/01/22 11:07:06;;;;;;;8.00;5.67;;;2.60;99.90;;;;;;5072896;28;20469;-72
2023/01/22 11:09:39;;;;;;;10.40;6.67;;;2.40;99.90;;;;;;5071386;28;20469;-72
2023/01/22 11:12:15;;;;;;;8.60;5.20;;;2.60;99.90;;;;;;5071533;28;20434;-72
2023/01/22 11:14:45;;;;;;;15.93;5.67;;;2.70;99.90;;;;;;5071636;28;20427;-72
2023/01/22 11:17:19;;;;;;;6.90;4.10;;;2.70;99.90;;;;;;5071185;28;20512;-72
2023/01/22 11:19:56;;;;;;;9.90;5.60;;;2.80;99.90;;;;;;5071233;28;20400;-72
2023/01/22 11:22:32;;;;;;;9.03;5.57;;;2.70;99.90;;;;;;5071482;28;20457;-71
2023/01/22 11:24:59;;;;;;;9.00;5.03;;;2.70;99.90;;;;;;5072557;28;20450;-72
2023/01/22 11:28:02;;;;;;;13.43;4.83;;;2.70;99.90;;;;;;5075165;28;21058;-72
2023/01/22 11:30:45;;;;;;;10.03;5.80;;;2.80;99.90;;;;;;5075579;28;20951;-72
2023/01/22 11:33:25;;;;;;;6.60;5.07;;;2.90;99.90;;;;;;5074885;28;20494;-72
2023/01/22 11:35:57;;;;;;;3.73;3.40;;;2.70;99.90;;;;;;5039548;28;20441;-72
2023/01/22 11:38:36;;;;;;;8.30;4.40;;;2.80;99.90;;;;;;5074481;28;20537;-72
2023/01/22 11:41:21;;;;;;;3.83;2.63;;;2.80;99.90;;;;;;5074873;28;20402;-72
2023/01/22 11:44:10;;;;;;;11.03;5.33;;;2.80;99.90;;;;;;5074223;28;20498;-71
2023/01/22 11:46:54;;;;;;;5.50;4.00;;;2.70;99.90;;;;;;5074492;28;20473;-71
2023/01/22 11:49:34;;;;;;;6.33;5.70;;;2.80;99.90;;;;;;5074463;28;20778;-71
2023/01/22 11:52:10;;;;;;;8.40;4.57;;;2.70;99.90;;;;;;5074755;28;20462;-71
2023/01/22 11:55:02;;;;;;;19.47;7.63;;;2.70;99.90;;;;;;5074662;28;20788;-71
2023/01/22 11:57:35;;;;;;;15.13;7.40;;;2.70;99.90;;;;;;5074386;28;20814;-71
2023/01/22 12:00:30;;;;;;;8.50;6.10;;;2.80;99.90;;;;;;5074887;28;20407;-72
2023/01/22 12:03:22;;;;;;;9.00;4.93;;;2.90;99.90;;;;;;5077170;28;20846;-72
2023/01/22 12:06:02;;;;;;;8.70;5.33;;;3.00;99.90;;;;;;5050422;28;20515;-69
2023/01/22 12:08:44;;;;;;;6.73;3.60;;;3.10;99.90;;;;;;5074055;28;20514;-71
2023/01/22 12:11:29;;;;;;;12.20;6.23;;;3.10;99.90;;;;;;5074426;28;20498;-71
2023/01/22 12:14:19;;;;;;;8.23;6.00;;;3.20;99.90;;;;;;5041153;28;21006;-69
2023/01/22 12:16:56;;;;;;;10.23;6.10;;;3.20;99.90;;;;;;5074624;28;20432;-70
2023/01/22 12:19:57;;;;;;;4.73;4.33;;;3.30;99.90;;;;;;5073523;28;20425;-70
2023/01/22 12:22:31;;;;;;;14.70;7.10;;;3.30;99.90;;;;;;5074169;28;20441;-70
2023/01/22 12:25:03;;;;;;;7.73;5.73;;;3.30;99.90;;;;;;5074468;28;20402;-70
2023/01/22 12:27:35;;;;;;;10.20;5.63;;;3.30;99.90;;;;;;5074237;28;20548;-70
2023/01/22 12:30:12;;;;;;;7.20;5.57;;;3.20;99.90;;;;;;5074268;28;20403;-71
2023/01/22 12:32:42;;;;;;;27.13;7.57;;;3.20;99.90;;;;;;5074005;28;20461;-71
2023/01/22 12:35:19;;;;;;;11.23;6.30;;;3.20;99.90;;;;;;5073506;28;20456;-70
2023/01/22 12:37:49;;;;;;;6.47;3.77;;;3.00;99.90;;;;;;5073624;28;20493;-71
2023/01/22 12:40:40;;;;;;;5.67;3.90;;;3.10;99.90;;;;;;5074136;28;20422;-71
2023/01/22 12:43:09;;;;;;;7.30;5.17;;;3.10;99.90;;;;;;5074218;28;20854;-71
2023/01/22 12:45:45;;;;;;;13.07;6.73;;;3.10;99.90;;;;;;5073791;28;20832;-71
2023/01/22 12:48:23;;;;;;;9.73;4.80;;;3.10;99.90;;;;;;5073527;28;20608;-71
2023/01/22 12:50:51;;;;;;;7.43;5.07;;;3.00;99.90;;;;;;5073771;28;20534;-71
2023/01/22 12:53:24;;;;;;;8.80;6.10;;;3.00;99.90;;;;;;5073849;28;20496;-71
2023/01/22 12:55:59;;;;;;;10.20;4.70;;;3.00;99.90;;;;;;5073185;28;20434;-70
2023/01/22 12:58:31;;;;;;;6.60;4.30;;;3.10;99.90;;;;;;5073714;28;20443;-71
2023/01/22 13:01:07;;;;;;;8.73;4.70;;;3.10;99.90;;;;;;5073783;28;20411;-71
2023/01/22 13:03:35;;;;;;;7.97;5.07;;;3.00;99.90;;;;;;5073322;28;20494;-71
2023/01/22 13:06:04;;;;;;;8.47;6.13;;;2.90;99.90;;;;;;5072979;28;20454;-71
2023/01/22 13:08:40;;;;;;;9.23;4.87;;;2.80;99.90;;;;;;5073183;28;20492;-71
2023/01/22 13:11:10;;;;;;;11.47;6.40;;;2.90;99.90;;;;;;5073709;28;20470;-71
2023/01/22 13:13:44;;;;;;;4.70;3.90;;;2.90;99.90;;;;;;5073247;28;20451;-71
2023/01/22 13:16:21;;;;;;;7.13;4.90;;;2.90;99.90;;;;;;5073126;28;20405;-71